Time;durP1;ratioP1;P1;durP2;ratioP2;P2;SDS_P1;SDS_P2;PMS_P1;PMS_P2;Temp;Humidity;BMP_temperature;BMP_pressure;BME280_temperature;BME280_humidity;BME280_pressure;Samples;Min_cycle;Max_cycle;Signal;HPM_P1;HPM_P2
2023/08/28 00:02:17;;;;;;;4.68;2.83;;;15.60;99.90;;;;;;5022391;28;20113;-58
2023/08/28 00:04:43;;;;;;;3.92;3.10;;;15.50;99.90;;;;;;5018514;28;20384;-57
2023/08/28 00:07:08;;;;;;;3.05;2.75;;;15.50;99.90;;;;;;5022364;28;20030;-58
2023/08/28 00:09:34;;;;;;;5.10;3.25;;;15.40;99.90;;;;;;5022280;28;20061;-58
2023/08/28 00:12:03;;;;;;;4.55;2.92;;;15.30;99.90;;;;;;5019907;28;20202;-58
2023/08/28 00:14:29;;;;;;;6.10;3.40;;;15.20;99.90;;;;;;5019721;28;20136;-54
2023/08/28 00:16:54;;;;;;;4.47;2.65;;;15.10;99.90;;;;;;5022867;28;20661;-58
2023/08/28 00:19:20;;;;;;;3.72;3.00;;;15.00;99.90;;;;;;5021026;28;20028;-57
2023/08/28 00:21:46;;;;;;;3.50;3.10;;;14.90;99.90;;;;;;5018878;28;20028;-58
2023/08/28 00:24:11;;;;;;;3.65;3.00;;;14.90;99.90;;;;;;5022137;28;20033;-58
2023/08/28 00:26:37;;;;;;;3.47;3.08;;;14.80;99.90;;;;;;5020148;28;20057;-58
2023/08/28 00:29:02;;;;;;;4.18;2.75;;;14.80;99.90;;;;;;5025768;28;20104;-58
2023/08/28 00:31:28;;;;;;;3.83;3.08;;;14.70;99.90;;;;;;5023996;28;20040;-58
2023/08/28 00:33:54;;;;;;;3.53;2.30;;;14.70;99.90;;;;;;5018203;28;20095;-58
2023/08/28 00:36:19;;;;;;;4.70;3.17;;;14.60;99.90;;;;;;5026259;28;20021;-58
2023/08/28 00:38:45;;;;;;;8.20;2.95;;;14.60;99.90;;;;;;5021531;28;20115;-58
2023/08/28 00:41:11;;;;;;;3.05;2.67;;;14.50;99.90;;;;;;5021847;28;20076;-58
2023/08/28 00:43:37;;;;;;;3.03;2.40;;;14.50;99.90;;;;;;5022854;28;20026;-58
2023/08/28 00:46:03;;;;;;;3.55;2.30;;;14.40;99.90;;;;;;5019590;28;20036;-57
2023/08/28 00:48:29;;;;;;;2.45;2.05;;;14.40;99.90;;;;;;5025341;28;20120;-57
2023/08/28 00:50:56;;;;;;;2.08;1.83;;;14.40;99.90;;;;;;5019767;28;20109;-57
2023/08/28 00:53:23;;;;;;;2.20;1.75;;;14.40;99.90;;;;;;5022368;28;20026;-58
2023/08/28 00:55:48;;;;;;;2.50;1.80;;;14.30;99.90;;;;;;5023535;28;20079;-58
2023/08/28 00:58:14;;;;;;;3.13;1.65;;;14.30;99.90;;;;;;5018422;28;20062;-57
2023/08/28 01:00:43;;;;;;;2.58;2.10;;;14.20;99.90;;;;;;5022383;28;20485;-57
2023/08/28 01:03:09;;;;;;;2.72;2.08;;;14.20;99.90;;;;;;5020702;28;20042;-57
2023/08/28 01:05:49;;;;;;;1.80;1.42;;;14.10;99.90;;;;;;5019821;28;20113;-57
2023/08/28 01:08:28;;;;;;;1.40;1.30;;;14.10;99.90;;;;;;5022249;28;20397;-57
2023/08/28 01:11:07;;;;;;;1.63;1.40;;;14.00;99.90;;;;;;5019615;28;20021;-55
2023/08/28 01:13:45;;;;;;;1.70;1.60;;;13.90;99.90;;;;;;5022360;28;20428;-58
2023/08/28 01:16:10;;;;;;;2.35;1.63;;;13.90;99.90;;;;;;5010496;28;20317;-58
2023/08/28 01:18:37;;;;;;;2.15;1.88;;;13.80;99.90;;;;;;5024077;28;20052;-56
2023/08/28 01:21:03;;;;;;;2.20;1.80;;;13.80;99.90;;;;;;5018685;28;20032;-57
2023/08/28 01:23:54;;;;;;;1.77;1.57;;;13.80;99.90;;;;;;5024012;28;20033;-58
2023/08/28 01:26:21;;;;;;;1.90;1.52;;;13.70;99.90;;;;;;5023176;28;20244;-58
2023/08/28 01:28:46;;;;;;;1.45;1.30;;;13.60;99.90;;;;;;5026372;28;20017;-57
2023/08/28 01:31:12;;;;;;;1.20;1.10;;;13.60;99.90;;;;;;5020543;28;20053;-57
2023/08/28 01:33:38;;;;;;;1.27;1.00;;;13.60;99.90;;;;;;5020457;28;20169;-57
2023/08/28 01:36:16;;;;;;;2.15;1.15;;;13.50;99.90;;;;;;5017007;28;20687;-56
2023/08/28 01:38:49;;;;;;;1.92;1.20;;;13.50;99.90;;;;;;5020496;28;20025;-58
2023/08/28 01:41:17;;;;;;;1.23;1.13;;;13.40;99.90;;;;;;5018081;28;20030;-58
2023/08/28 01:43:47;;;;;;;1.50;1.30;;;13.40;99.90;;;;;;5023064;28;20021;-57
2023/08/28 01:46:13;;;;;;;1.40;1.25;;;13.30;99.90;;;;;;5027072;28;20044;-58
2023/08/28 01:48:52;;;;;;;1.48;1.10;;;13.30;99.90;;;;;;5020654;28;20104;-57
2023/08/28 01:51:18;;;;;;;4.35;1.60;;;13.20;99.90;;;;;;5020429;28;20029;-58
2023/08/28 01:53:44;;;;;;;1.48;1.38;;;13.10;99.90;;;;;;5022305;28;20040;-57
2023/08/28 01:56:09;;;;;;;2.58;1.17;;;13.10;99.90;;;;;;5024312;28;20037;-57
2023/08/28 01:58:43;;;;;;;1.50;1.05;;;13.10;99.90;;;;;;5022127;28;20393;-58
2023/08/28 02:01:08;;;;;;;3.28;1.50;;;13.00;99.90;;;;;;5015452;28;20252;-57
2023/08/28 02:03:34;;;;;;;2.85;1.30;;;12.90;99.90;;;;;;5021771;28;20304;-59
2023/08/28 02:05:59;;;;;;;2.03;1.30;;;12.90;99.90;;;;;;5020403;28;20276;-58
2023/08/28 02:08:25;;;;;;;2.10;1.50;;;12.80;99.90;;;;;;5016315;28;20030;-57
2023/08/28 02:10:52;;;;;;;1.80;1.30;;;12.80;99.90;;;;;;5022579;28;20448;-57
2023/08/28 02:13:20;;;;;;;3.53;1.30;;;12.70;99.90;;;;;;5019152;28;20033;-59
2023/08/28 02:15:45;;;;;;;1.58;1.15;;;12.70;99.90;;;;;;5015793;28;20022;-59
2023/08/28 02:18:11;;;;;;;1.98;1.42;;;12.60;99.90;;;;;;5023416;28;20067;-59
2023/08/28 02:20:36;;;;;;;1.52;1.42;;;12.50;99.90;;;;;;5018320;28;20072;-60
2023/08/28 02:23:02;;;;;;;1.67;1.40;;;12.40;99.90;;;;;;5019129;28;20584;-60
2023/08/28 02:25:27;;;;;;;1.67;1.40;;;12.40;99.90;;;;;;5020329;28;20113;-56
2023/08/28 02:27:53;;;;;;;1.33;1.05;;;12.30;99.90;;;;;;5019584;28;20481;-54
2023/08/28 02:30:18;;;;;;;1.83;1.50;;;12.30;99.90;;;;;;5019535;28;20028;-56
2023/08/28 02:32:44;;;;;;;3.42;1.48;;;12.30;99.90;;;;;;5019821;28;20513;-56
2023/08/28 02:35:11;;;;;;;2.45;1.30;;;12.20;99.90;;;;;;5024125;28;20026;-51
2023/08/28 02:37:37;;;;;;;3.03;1.77;;;12.20;99.90;;;;;;5019628;28;20060;-54
2023/08/28 02:40:03;;;;;;;1.48;1.27;;;12.10;99.90;;;;;;5016892;28;20037;-55
2023/08/28 02:42:29;;;;;;;1.70;1.60;;;12.10;99.90;;;;;;5020035;28;20083;-54
2023/08/28 02:44:54;;;;;;;2.03;1.20;;;12.00;99.90;;;;;;5017859;28;20493;-56
2023/08/28 02:47:21;;;;;;;1.20;1.10;;;11.90;99.90;;;;;;5022608;28;20371;-55
2023/08/28 02:49:47;;;;;;;2.50;1.40;;;11.90;99.90;;;;;;5023892;28;20056;-54
2023/08/28 02:52:13;;;;;;;1.58;1.13;;;11.80;99.90;;;;;;5015349;28;20056;-56
2023/08/28 02:54:38;;;;;;;1.88;1.50;;;11.80;99.90;;;;;;5019449;28;20037;-54
2023/08/28 02:57:04;;;;;;;1.50;1.40;;;11.80;99.90;;;;;;5021505;28;20025;-56
2023/08/28 02:59:30;;;;;;;2.33;1.90;;;11.70;99.90;;;;;;5022485;28;20108;-56
2023/08/28 03:01:55;;;;;;;1.73;1.50;;;11.70;99.90;;;;;;5022283;28;20096;-56
2023/08/28 03:04:21;;;;;;;2.33;1.42;;;11.60;99.90;;;;;;5020789;28;20080;-55
2023/08/28 03:06:46;;;;;;;4.28;1.50;;;11.60;99.90;;;;;;5019650;28;20400;-56
2023/08/28 03:09:15;;;;;;;2.47;1.35;;;11.50;99.90;;;;;;5019127;28;20571;-54
2023/08/28 03:11:40;;;;;;;1.70;1.60;;;11.50;99.90;;;;;;5019066;28;20025;-56
2023/08/28 03:14:06;;;;;;;1.92;1.50;;;11.40;99.90;;;;;;5013851;28;20030;-55
2023/08/28 03:16:32;;;;;;;3.33;1.77;;;11.40;99.90;;;;;;5016391;28;20077;-55
2023/08/28 03:18:57;;;;;;;1.67;1.45;;;11.40;99.90;;;;;;5029970;28;20033;-54
2023/08/28 03:21:23;;;;;;;1.80;1.45;;;11.30;99.90;;;;;;5018933;28;20022;-56
2023/08/28 03:23:49;;;;;;;4.28;1.98;;;11.30;99.90;;;;;;5018930;28;20037;-56
2023/08/28 03:26:14;;;;;;;6.95;3.50;;;11.20;99.90;;;;;;5019012;28;20053;-54
2023/08/28 03:28:40;;;;;;;6.85;2.80;;;11.20;99.90;;;;;;5018855;28;20033;-53
2023/08/28 03:31:05;;;;;;;4.57;2.38;;;11.20;99.90;;;;;;5019056;28;20548;-55
2023/08/28 03:33:31;;;;;;;5.55;2.35;;;11.10;99.90;;;;;;5016553;28;20033;-59
2023/08/28 03:35:57;;;;;;;2.67;2.03;;;11.00;99.90;;;;;;5019772;28;20029;-60
2023/08/28 03:38:22;;;;;;;4.28;2.20;;;11.00;99.90;;;;;;5018441;28;20025;-60
2023/08/28 03:40:48;;;;;;;3.00;2.28;;;11.00;99.90;;;;;;5018168;28;20195;-59
2023/08/28 03:43:14;;;;;;;3.17;2.28;;;11.00;99.90;;;;;;5019881;28;20052;-60
2023/08/28 03:45:40;;;;;;;3.28;2.10;;;10.90;99.90;;;;;;5024390;28;20048;-60
2023/08/28 03:48:06;;;;;;;5.28;2.90;;;10.90;99.90;;;;;;5022967;28;20033;-61
2023/08/28 03:50:31;;;;;;;6.68;3.83;;;10.90;99.90;;;;;;5023608;28;20024;-59
2023/08/28 03:52:58;;;;;;;8.52;4.15;;;10.80;99.90;;;;;;5019044;28;20033;-60
2023/08/28 03:55:24;;;;;;;7.10;3.88;;;10.90;99.90;;;;;;5019016;28;20404;-59
2023/08/28 03:57:57;;;;;;;6.85;3.80;;;10.80;99.90;;;;;;5017679;28;20076;-60
2023/08/28 04:00:23;;;;;;;5.25;3.58;;;10.90;99.90;;;;;;5018994;28;20030;-59
2023/08/28 04:02:50;;;;;;;6.55;3.17;;;10.90;99.90;;;;;;5022824;28;20018;-59
2023/08/28 04:05:16;;;;;;;4.13;2.60;;;10.90;99.90;;;;;;5022567;28;20611;-59
2023/08/28 04:07:43;;;;;;;4.00;2.33;;;10.90;99.90;;;;;;5018664;28;20056;-59
2023/08/28 04:10:09;;;;;;;3.85;2.50;;;10.90;99.90;;;;;;5018293;28;20756;-59
2023/08/28 04:12:34;;;;;;;7.28;2.63;;;10.90;99.90;;;;;;5021971;28;20033;-59
2023/08/28 04:15:00;;;;;;;3.17;2.55;;;10.90;99.90;;;;;;5020704;28;20036;-60
2023/08/28 04:17:26;;;;;;;3.90;2.50;;;11.00;99.90;;;;;;5017350;28;20048;-60
2023/08/28 04:19:55;;;;;;;2.97;2.40;;;11.00;99.90;;;;;;5014565;28;20022;-59
2023/08/28 04:22:20;;;;;;;2.78;1.95;;;11.10;99.90;;;;;;5014920;28;20037;-60
2023/08/28 04:24:49;;;;;;;4.55;2.08;;;11.10;99.90;;;;;;5024909;28;20034;-59
2023/08/28 04:27:14;;;;;;;4.70;2.50;;;11.20;99.90;;;;;;5020045;28;20509;-59
2023/08/28 04:29:40;;;;;;;3.13;2.10;;;11.30;99.90;;;;;;5026037;28;20037;-59
2023/08/28 04:32:06;;;;;;;7.32;2.67;;;11.40;99.90;;;;;;5021014;28;20083;-60
2023/08/28 04:34:31;;;;;;;5.15;2.22;;;11.50;99.90;;;;;;5018733;28;20021;-59
2023/08/28 04:36:56;;;;;;;2.88;1.90;;;11.60;99.90;;;;;;5014418;28;20593;-59
2023/08/28 04:39:23;;;;;;;3.78;2.25;;;11.70;99.90;;;;;;5016111;28;20083;-60
2023/08/28 04:41:49;;;;;;;2.50;2.03;;;11.80;99.90;;;;;;5016074;28;20014;-60
2023/08/28 04:44:14;;;;;;;2.25;2.05;;;11.90;99.90;;;;;;5021824;28;20036;-60
2023/08/28 04:46:40;;;;;;;2.53;2.00;;;12.00;99.90;;;;;;5016326;28;20018;-59
2023/08/28 04:49:06;;;;;;;2.22;1.77;;;12.10;99.90;;;;;;5016189;28;20045;-60
2023/08/28 04:51:31;;;;;;;2.65;2.13;;;12.20;99.90;;;;;;5012711;28;20060;-59
2023/08/28 04:53:57;;;;;;;2.20;1.88;;;12.30;99.90;;;;;;5017677;28;20032;-59
2023/08/28 04:56:22;;;;;;;2.17;1.98;;;12.60;99.90;;;;;;5016442;28;20033;-60
2023/08/28 04:58:48;;;;;;;1.95;1.73;;;13.20;99.90;;;;;;5015301;28;20541;-59
2023/08/28 05:01:13;;;;;;;1.92;1.83;;;14.10;99.90;;;;;;5014085;28;20453;-59
2023/08/28 05:03:39;;;;;;;1.67;1.50;;;15.00;99.90;;;;;;5019293;28;20025;-59
2023/08/28 05:06:05;;;;;;;1.42;1.33;;;15.80;99.90;;;;;;5011846;28;20043;-60
2023/08/28 05:08:30;;;;;;;3.60;1.52;;;16.60;99.90;;;;;;5011178;28;20069;-60
2023/08/28 05:10:56;;;;;;;1.80;1.33;;;17.20;99.90;;;;;;5009152;28;20033;-60
2023/08/28 05:13:21;;;;;;;1.55;1.30;;;17.90;99.90;;;;;;5013830;28;20051;-60
2023/08/28 05:15:47;;;;;;;2.40;1.10;;;18.20;99.90;;;;;;5007817;28;20060;-60
2023/08/28 05:18:13;;;;;;;1.42;1.10;;;18.50;98.80;;;;;;5014705;28;20610;-60
2023/08/28 05:20:39;;;;;;;1.42;1.00;;;19.10;97.10;;;;;;5012618;28;20042;-61
2023/08/28 05:23:04;;;;;;;1.90;1.20;;;19.60;96.10;;;;;;5017503;28;20038;-61
2023/08/28 05:25:30;;;;;;;1.30;1.20;;;19.70;93.30;;;;;;5014321;28;20511;-60
2023/08/28 05:27:56;;;;;;;2.80;1.30;;;19.60;92.20;;;;;;5011132;28;20048;-59
2023/08/28 05:30:21;;;;;;;1.95;1.33;;;19.40;93.10;;;;;;5017390;28;20045;-61
2023/08/28 05:32:47;;;;;;;1.70;1.10;;;19.70;94.00;;;;;;5012896;28;20041;-61
2023/08/28 05:35:12;;;;;;;1.98;1.50;;;20.00;91.70;;;;;;5019249;28;20033;-60
2023/08/28 05:37:38;;;;;;;5.38;1.55;;;20.10;91.30;;;;;;5011800;28;20125;-61
2023/08/28 05:40:04;;;;;;;1.92;1.10;;;20.30;90.90;;;;;;5015974;28;20022;-60
2023/08/28 05:42:30;;;;;;;2.97;1.30;;;20.80;90.30;;;;;;5014797;28;20028;-61
2023/08/28 05:44:56;;;;;;;2.35;1.20;;;21.40;85.90;;;;;;5014835;28;20029;-60
2023/08/28 05:47:21;;;;;;;2.35;1.10;;;21.90;83.00;;;;;;5016153;28;20033;-60
2023/08/28 05:49:47;;;;;;;2.97;1.23;;;22.60;82.60;;;;;;5012754;28;20525;-61
2023/08/28 05:52:12;;;;;;;1.45;1.20;;;23.40;79.90;;;;;;5014619;28;20568;-61
2023/08/28 05:54:38;;;;;;;2.67;1.10;;;24.00;76.50;;;;;;5013737;28;20406;-59
2023/08/28 05:57:04;;;;;;;1.42;0.90;;;24.60;73.40;;;;;;5021892;28;20018;-59
2023/08/28 05:59:29;;;;;;;1.02;0.93;;;25.20;70.20;;;;;;5016045;28;20199;-61
2023/08/28 06:01:55;;;;;;;2.63;1.40;;;25.60;68.70;;;;;;5020266;28;20497;-58
2023/08/28 06:04:20;;;;;;;2.63;1.20;;;25.50;64.30;;;;;;5029140;28;20493;-60
2023/08/28 06:06:46;;;;;;;1.73;0.82;;;25.70;54.90;;;;;;5021737;28;20025;-59
2023/08/28 06:09:11;;;;;;;1.40;1.30;;;25.60;64.30;;;;;;5020261;28;20084;-60
2023/08/28 06:11:37;;;;;;;1.17;1.00;;;25.30;63.20;;;;;;5020027;28;20018;-60
2023/08/28 06:14:03;;;;;;;1.30;1.20;;;24.90;63.30;;;;;;5016677;28;20437;-59
2023/08/28 06:16:28;;;;;;;1.02;0.93;;;24.80;63.10;;;;;;5020382;28;20026;-58
2023/08/28 06:18:54;;;;;;;1.77;0.90;;;24.80;63.40;;;;;;5022083;28;20032;-61
2023/08/28 06:21:20;;;;;;;1.42;1.17;;;25.30;62.10;;;;;;5022704;28;20029;-58
2023/08/28 06:23:45;;;;;;;1.27;1.17;;;26.30;60.50;;;;;;5017604;28;20049;-59
2023/08/28 06:26:11;;;;;;;2.85;1.40;;;27.10;57.60;;;;;;5018293;28;20035;-59
2023/08/28 06:28:36;;;;;;;0.88;0.80;;;28.10;55.40;;;;;;5023336;28;20083;-59
2023/08/28 06:31:02;;;;;;;0.82;0.70;;;29.10;53.20;;;;;;5017958;28;20064;-59
2023/08/28 06:33:28;;;;;;;2.03;0.93;;;29.90;51.50;;;;;;5021025;28;20076;-59
2023/08/28 06:35:53;;;;;;;1.20;0.90;;;30.50;48.60;;;;;;5025767;28;20439;-60
2023/08/28 06:38:20;;;;;;;0.93;0.70;;;30.90;44.30;;;;;;5016577;28;20057;-59
2023/08/28 06:40:52;;;;;;;1.42;0.85;;;31.10;43.50;;;;;;5020874;28;20018;-60
2023/08/28 06:43:18;;;;;;;1.02;0.68;;;31.50;30.70;;;;;;5021690;28;20124;-60
2023/08/28 06:45:47;;;;;;;1.25;0.95;;;31.70;39.60;;;;;;5019359;28;20073;-60
2023/08/28 06:48:13;;;;;;;1.05;0.90;;;31.90;37.20;;;;;;5019302;28;20030;-59
2023/08/28 06:50:39;;;;;;;1.88;1.10;;;31.90;34.80;;;;;;5019608;28;20029;-59
2023/08/28 06:53:04;;;;;;;1.92;1.10;;;32.10;34.20;;;;;;5019946;28;20029;-60
2023/08/28 06:55:32;;;;;;;1.25;1.00;;;31.40;32.90;;;;;;5023350;28;20040;-60
2023/08/28 06:57:58;;;;;;;1.48;1.08;;;31.30;32.20;;;;;;5019688;28;20956;-60
2023/08/28 07:00:24;;;;;;;2.00;1.00;;;30.90;31.90;;;;;;5019221;28;20034;-59
2023/08/28 07:02:49;;;;;;;2.17;1.08;;;30.10;31.70;;;;;;5019241;28;20250;-59
2023/08/28 07:05:15;;;;;;;1.90;1.00;;;29.80;31.70;;;;;;5019278;28;20428;-59
2023/08/28 07:07:40;;;;;;;2.88;0.98;;;29.90;31.10;;;;;;5020993;28;20025;-59
2023/08/28 07:10:06;;;;;;;1.92;1.00;;;30.30;30.00;;;;;;5018542;28;20370;-59
2023/08/28 07:12:33;;;;;;;1.45;0.90;;;30.60;29.80;;;;;;5019013;28;20037;-60
2023/08/28 07:15:11;;;;;;;2.22;1.10;;;31.20;29.10;;;;;;5015524;28;20104;-60
2023/08/28 07:17:37;;;;;;;2.47;1.00;;;31.80;23.30;;;;;;5023785;28;20116;-60
2023/08/28 07:20:04;;;;;;;1.00;0.90;;;32.20;27.20;;;;;;5023057;28;20516;-60
2023/08/28 07:22:30;;;;;;;1.92;1.00;;;32.40;26.40;;;;;;5019257;28;20048;-59
2023/08/28 07:24:56;;;;;;;1.52;0.80;;;32.40;25.90;;;;;;5019192;28;20029;-60
2023/08/28 07:27:21;;;;;;;2.05;1.00;;;32.50;25.00;;;;;;5017129;28;20148;-59
2023/08/28 07:29:47;;;;;;;1.40;1.08;;;32.70;24.40;;;;;;5024552;28;20033;-60
2023/08/28 07:32:12;;;;;;;1.65;1.05;;;32.70;23.40;;;;;;5014924;28;20056;-60
2023/08/28 07:34:38;;;;;;;2.65;0.95;;;32.50;23.20;;;;;;5023242;28;20034;-59
2023/08/28 07:37:04;;;;;;;2.40;0.88;;;31.80;22.70;;;;;;5023707;28;20105;-60
2023/08/28 07:39:29;;;;;;;0.73;0.73;;;31.10;23.40;;;;;;5018756;28;20025;-59
2023/08/28 07:41:57;;;;;;;2.67;1.00;;;30.70;23.20;;;;;;5018791;28;20049;-59
2023/08/28 07:44:22;;;;;;;3.03;0.88;;;30.50;23.00;;;;;;5020680;28;20033;-59
2023/08/28 07:46:47;;;;;;;1.00;0.60;;;30.20;22.90;;;;;;5018899;28;20287;-60
2023/08/28 07:49:13;;;;;;;1.75;0.90;;;29.70;23.00;;;;;;5019227;28;20397;-59
2023/08/28 07:51:38;;;;;;;1.40;0.90;;;28.90;23.20;;;;;;5018717;28;20110;-59
2023/08/28 07:54:04;;;;;;;1.80;0.57;;;28.30;22.80;;;;;;5023466;28;20040;-59
2023/08/28 07:56:29;;;;;;;1.58;0.98;;;27.80;23.90;;;;;;5022940;28;20424;-59
2023/08/28 07:58:55;;;;;;;1.50;0.70;;;27.50;24.30;;;;;;5016582;28;20025;-59
2023/08/28 08:01:21;;;;;;;0.93;0.60;;;27.10;24.60;;;;;;5018618;28;20101;-59
2023/08/28 08:03:46;;;;;;;1.08;0.80;;;26.80;25.00;;;;;;5018476;28;20025;-59
2023/08/28 08:06:12;;;;;;;1.63;0.75;;;26.60;25.50;;;;;;5019738;28;20048;-59
2023/08/28 08:08:37;;;;;;;2.20;0.80;;;26.30;25.50;;;;;;5017241;28;20022;-59
2023/08/28 08:11:02;;;;;;;1.83;0.77;;;26.00;25.80;;;;;;5022068;28;20512;-59
2023/08/28 08:13:29;;;;;;;1.27;0.60;;;25.70;26.40;;;;;;5021501;28;20033;-59
2023/08/28 08:15:54;;;;;;;1.58;0.68;;;25.40;26.70;;;;;;5019383;28;20048;-59
2023/08/28 08:18:20;;;;;;;1.48;0.95;;;25.30;26.80;;;;;;5022703;28;20033;-59
2023/08/28 08:20:45;;;;;;;1.50;0.80;;;25.20;27.10;;;;;;5020280;28;20021;-59
2023/08/28 08:23:11;;;;;;;1.77;0.70;;;24.80;27.20;;;;;;5019660;28;20033;-59
2023/08/28 08:25:36;;;;;;;1.05;0.63;;;24.60;27.70;;;;;;5025506;28;20405;-58
2023/08/28 08:28:05;;;;;;;1.00;0.63;;;24.40;28.00;;;;;;5019029;28;20118;-59
2023/08/28 08:30:30;;;;;;;1.00;0.90;;;24.40;28.50;;;;;;5024495;28;20230;-59
2023/08/28 08:32:56;;;;;;;1.75;0.63;;;24.40;28.70;;;;;;5021424;28;20511;-59
2023/08/28 08:35:21;;;;;;;2.05;0.90;;;24.20;28.90;;;;;;5021806;28;20045;-59
2023/08/28 08:37:52;;;;;;;1.48;0.80;;;24.10;29.10;;;;;;5020289;28;20032;-59
2023/08/28 08:40:20;;;;;;;3.10;1.10;;;24.00;29.60;;;;;;5017801;28;20087;-59
2023/08/28 08:42:46;;;;;;;1.83;0.82;;;23.90;29.80;;;;;;5022469;28;20104;-59
2023/08/28 08:45:11;;;;;;;1.08;0.68;;;24.00;30.10;;;;;;5021635;28;20449;-58
2023/08/28 08:47:39;;;;;;;1.60;0.68;;;24.00;30.30;;;;;;5022519;28;20585;-59
2023/08/28 08:50:07;;;;;;;2.13;0.70;;;24.20;30.70;;;;;;5027183;28;20036;-60
2023/08/28 08:52:36;;;;;;;1.38;0.80;;;24.40;31.10;;;;;;5022162;28;20124;-59
2023/08/28 08:55:12;;;;;;;1.10;0.68;;;24.60;31.70;;;;;;5024187;28;20562;-59
2023/08/28 08:57:42;;;;;;;1.13;0.77;;;24.70;31.90;;;;;;5024808;28;20032;-59
2023/08/28 09:00:13;;;;;;;1.38;0.70;;;24.80;31.20;;;;;;5021789;28;20100;-59
2023/08/28 09:02:41;;;;;;;1.42;0.60;;;25.00;31.00;;;;;;5023351;28;20036;-59
2023/08/28 09:05:07;;;;;;;2.17;0.47;;;25.00;30.80;;;;;;5025595;28;20034;-59
2023/08/28 09:07:34;;;;;;;2.60;0.85;;;25.00;30.50;;;;;;5023008;28;20112;-60
2023/08/28 09:10:01;;;;;;;0.85;0.52;;;24.80;30.00;;;;;;5023518;28;20481;-59
2023/08/28 09:12:27;;;;;;;0.95;0.60;;;24.80;29.90;;;;;;5021167;28;20036;-59
2023/08/28 09:14:53;;;;;;;1.33;0.85;;;24.70;29.50;;;;;;5017909;28;20033;-59
2023/08/28 09:17:18;;;;;;;1.85;0.52;;;24.50;29.40;;;;;;5022341;28;20030;-59
2023/08/28 09:19:45;;;;;;;1.30;0.70;;;24.40;29.40;;;;;;5019054;28;20284;-59
2023/08/28 09:22:10;;;;;;;0.90;0.57;;;24.20;29.40;;;;;;5025444;28;20025;-59
2023/08/28 09:24:39;;;;;;;1.05;0.60;;;24.10;29.50;;;;;;5017066;28;20038;-59
2023/08/28 09:27:04;;;;;;;1.33;0.60;;;24.00;29.70;;;;;;5021383;28;20026;-59
2023/08/28 09:29:30;;;;;;;0.80;0.73;;;24.00;30.00;;;;;;5020777;28;20045;-59
2023/08/28 09:32:03;;;;;;;0.88;0.60;;;23.90;30.00;;;;;;5018801;28;20114;-59
2023/08/28 09:34:37;;;;;;;0.82;0.75;;;23.70;30.20;;;;;;5020686;28;20108;-59
2023/08/28 09:37:03;;;;;;;1.00;0.85;;;23.50;30.70;;;;;;5020779;28;20112;-58
2023/08/28 09:39:28;;;;;;;1.70;0.60;;;23.40;30.70;;;;;;5018013;28;20034;-57
2023/08/28 09:41:54;;;;;;;1.90;0.47;;;23.30;30.90;;;;;;5027148;28;20024;-58
2023/08/28 09:44:20;;;;;;;3.72;0.90;;;23.10;31.30;;;;;;5022260;28;20497;-57
2023/08/28 09:46:47;;;;;;;1.35;0.80;;;23.00;31.70;;;;;;5020344;28;20667;-56
2023/08/28 09:49:13;;;;;;;0.88;0.70;;;22.90;32.30;;;;;;5020598;28;20057;-57
2023/08/28 09:51:43;;;;;;;1.58;0.70;;;22.80;32.30;;;;;;5021010;28;20029;-57
2023/08/28 09:54:10;;;;;;;1.08;0.68;;;22.80;32.90;;;;;;5020247;28;20021;-58
2023/08/28 09:56:37;;;;;;;0.95;0.43;;;22.70;33.40;;;;;;5020168;28;20018;-58
2023/08/28 09:59:03;;;;;;;2.78;0.60;;;22.70;33.20;;;;;;5020776;28;20037;-58
2023/08/28 10:01:34;;;;;;;0.70;0.70;;;22.80;33.30;;;;;;5024297;28;20075;-58
2023/08/28 10:04:01;;;;;;;1.08;0.77;;;22.90;33.30;;;;;;5024500;28;20096;-58
2023/08/28 10:06:32;;;;;;;2.17;1.05;;;22.90;33.40;;;;;;5022285;28;20026;-57
2023/08/28 10:09:04;;;;;;;1.05;0.63;;;23.00;33.70;;;;;;5018699;28;20097;-58
2023/08/28 10:11:37;;;;;;;2.45;0.98;;;22.90;34.00;;;;;;5021084;28;20501;-58
2023/08/28 10:14:04;;;;;;;1.35;0.77;;;23.00;34.70;;;;;;5020280;28;20414;-58
2023/08/28 10:16:33;;;;;;;2.13;1.00;;;23.00;34.10;;;;;;5020059;28;20026;-58
2023/08/28 10:19:15;;;;;;;3.10;1.00;;;23.00;34.40;;;;;;5020341;28;20117;-58
2023/08/28 10:21:42;;;;;;;2.13;0.57;;;22.90;34.40;;;;;;5019701;28;20113;-58
2023/08/28 10:24:08;;;;;;;2.03;1.00;;;22.80;34.70;;;;;;5023856;28;20037;-57
2023/08/28 10:26:35;;;;;;;1.67;1.00;;;22.70;34.90;;;;;;5019763;28;20481;-56
2023/08/28 10:29:03;;;;;;;2.75;0.85;;;22.60;35.10;;;;;;5021995;28;20025;-58
2023/08/28 10:31:29;;;;;;;1.70;0.88;;;22.60;35.40;;;;;;5019670;28;20052;-58
2023/08/28 10:33:55;;;;;;;0.70;0.70;;;22.70;35.20;;;;;;5018316;28;20041;-56
2023/08/28 10:36:22;;;;;;;1.55;0.90;;;22.80;34.90;;;;;;5019491;28;20060;-58
2023/08/28 10:38:51;;;;;;;1.55;0.90;;;22.80;35.00;;;;;;5019424;28;20025;-57
2023/08/28 10:41:17;;;;;;;1.05;0.70;;;22.90;34.60;;;;;;5023555;28;20029;-58
2023/08/28 10:43:43;;;;;;;0.73;0.68;;;23.00;34.20;;;;;;5019690;28;20025;-58
2023/08/28 10:46:09;;;;;;;2.17;0.80;;;23.00;34.30;;;;;;5019866;28;20409;-56
2023/08/28 10:48:38;;;;;;;1.73;0.85;;;22.90;34.50;;;;;;5016595;28;20025;-58
2023/08/28 10:51:04;;;;;;;1.55;0.85;;;23.00;35.00;;;;;;5017301;28;20052;-58
2023/08/28 10:53:29;;;;;;;0.90;0.60;;;23.00;34.70;;;;;;5019155;28;20544;-58
2023/08/28 10:55:56;;;;;;;1.10;0.60;;;23.10;34.40;;;;;;5019360;28;20033;-58
2023/08/28 10:58:22;;;;;;;2.30;0.70;;;23.10;34.00;;;;;;5019559;28;20033;-58
2023/08/28 11:00:48;;;;;;;1.70;0.75;;;23.20;34.10;;;;;;5023342;28;20029;-58
2023/08/28 11:03:18;;;;;;;1.40;0.90;;;23.20;34.10;;;;;;5021004;28;20440;-58
2023/08/28 11:05:44;;;;;;;0.98;0.70;;;23.20;34.20;;;;;;5028581;28;20025;-58
2023/08/28 11:08:11;;;;;;;1.27;0.43;;;23.20;34.10;;;;;;5016994;28;20398;-56
2023/08/28 11:10:44;;;;;;;1.38;0.77;;;23.30;33.90;;;;;;5019377;28;20631;-57
2023/08/28 11:13:21;;;;;;;3.95;0.80;;;23.50;33.60;;;;;;5017099;28;20177;-58
2023/08/28 11:15:48;;;;;;;1.02;0.65;;;23.70;33.30;;;;;;5008374;28;20029;-58
2023/08/28 11:18:27;;;;;;;1.65;0.60;;;23.80;33.40;;;;;;5029708;28;20022;-58
2023/08/28 11:21:04;;;;;;;1.27;0.85;;;23.90;33.00;;;;;;5016483;28;20025;-58
2023/08/28 11:23:38;;;;;;;2.15;0.73;;;23.90;32.60;;;;;;5018922;28;20036;-58
2023/08/28 11:26:10;;;;;;;1.60;0.65;;;24.00;32.90;;;;;;5019108;28;20509;-58
2023/08/28 11:28:46;;;;;;;0.73;0.47;;;24.10;33.10;;;;;;5018875;28;20493;-58
2023/08/28 11:31:12;;;;;;;1.38;0.88;;;24.10;32.40;;;;;;5018794;28;20050;-57
2023/08/28 11:33:43;;;;;;;0.60;0.55;;;24.10;32.80;;;;;;5019188;28;20475;-58
2023/08/28 11:36:10;;;;;;;0.82;0.60;;;24.10;32.90;;;;;;5021263;28;20039;-58
2023/08/28 11:38:38;;;;;;;0.70;0.70;;;24.10;32.60;;;;;;5020835;28;20087;-58
2023/08/28 11:41:08;;;;;;;2.05;0.50;;;24.10;32.70;;;;;;5017494;28;20512;-58
2023/08/28 11:43:38;;;;;;;0.60;0.50;;;24.00;32.70;;;;;;5020212;28;20022;-58
2023/08/28 11:46:04;;;;;;;1.40;0.63;;;23.90;32.60;;;;;;5021191;28;20037;-58
2023/08/28 11:48:43;;;;;;;0.80;0.70;;;23.90;32.50;;;;;;5018613;28;20052;-58
2023/08/28 11:51:09;;;;;;;1.92;0.80;;;23.90;32.60;;;;;;5018803;28;20195;-58
2023/08/28 11:53:42;;;;;;;3.42;0.75;;;24.00;32.90;;;;;;5018989;28;20207;-58
2023/08/28 11:56:10;;;;;;;2.25;0.75;;;24.00;32.80;;;;;;5027472;28;20092;-58
2023/08/28 11:58:39;;;;;;;1.30;0.57;;;24.10;32.70;;;;;;5023096;28;20041;-58
2023/08/28 12:01:07;;;;;;;3.83;0.77;;;24.10;32.60;;;;;;5026048;28;20496;-58
2023/08/28 12:03:36;;;;;;;3.30;0.80;;;24.00;32.80;;;;;;5020326;28;20124;-58
2023/08/28 12:06:07;;;;;;;0.82;0.60;;;23.90;32.80;;;;;;5021317;28;20034;-57
2023/08/28 12:08:36;;;;;;;2.10;0.57;;;23.90;32.70;;;;;;5024452;28;20056;-58
2023/08/28 12:11:03;;;;;;;0.50;0.50;;;23.80;32.40;;;;;;5019965;28;20026;-57
2023/08/28 12:13:32;;;;;;;0.73;0.70;;;23.70;32.50;;;;;;5027155;28;20032;-58
2023/08/28 12:16:14;;;;;;;2.17;0.85;;;23.60;32.60;;;;;;5019197;28;20024;-58
2023/08/28 12:18:49;;;;;;;1.73;0.60;;;23.50;32.70;;;;;;5024470;28;20075;-57
2023/08/28 12:21:17;;;;;;;0.90;0.70;;;23.50;33.00;;;;;;5023991;28;20071;-58
2023/08/28 12:23:47;;;;;;;1.67;0.50;;;23.60;33.10;;;;;;5022045;28;20036;-58
2023/08/28 12:26:12;;;;;;;0.75;0.55;;;23.50;32.70;;;;;;5023056;28;20033;-58
2023/08/28 12:28:38;;;;;;;2.38;0.57;;;23.50;33.60;;;;;;5023585;28;20572;-58
2023/08/28 12:31:03;;;;;;;1.10;0.80;;;23.50;33.00;;;;;;5028579;28;20037;-57
2023/08/28 12:33:29;;;;;;;0.80;0.60;;;23.60;33.00;;;;;;5030192;28;20400;-57
2023/08/28 12:35:54;;;;;;;1.15;0.70;;;23.60;33.10;;;;;;5021777;28;20035;-56
2023/08/28 12:38:20;;;;;;;1.23;0.65;;;23.60;33.00;;;;;;5021806;28;20436;-57
2023/08/28 12:40:50;;;;;;;1.42;0.60;;;23.60;32.80;;;;;;5019549;28;20029;-58
2023/08/28 12:43:16;;;;;;;1.55;0.70;;;23.50;32.90;;;;;;5019446;28;20034;-57
2023/08/28 12:45:42;;;;;;;0.65;0.60;;;23.40;33.20;;;;;;5021546;28;20390;-57
2023/08/28 12:48:08;;;;;;;1.17;0.52;;;23.30;33.40;;;;;;5019856;28;20022;-58